sensor_id;sensor_type;location;lat;lon;timestamp;pressure;altitude;pressure_sealevel;temperature;humidity
64876;BME280;51369;49.862;9.908;2023-03-21T00:00:01;98545.91;;;10.46;60.23
64876;BME280;51369;49.862;9.908;2023-03-21T00:02:26;98544.09;;;10.46;61.07
64876;BME280;51369;49.862;9.908;2023-03-21T00:04:51;98542.34;;;10.45;61.10
64876;BME280;51369;49.862;9.908;2023-03-21T00:07:17;98546.84;;;10.44;60.95
64876;BME280;51369;49.862;9.908;2023-03-21T00:09:42;98537.00;;;10.43;60.91
64876;BME280;51369;49.862;9.908;2023-03-21T00:12:08;98546.03;;;10.42;61.23
64876;BME280;51369;49.862;9.908;2023-03-21T00:14:35;98538.88;;;10.41;60.64
64876;BME280;51369;49.862;9.908;2023-03-21T00:17:03;98533.47;;;10.41;61.00
64876;BME280;51369;49.862;9.908;2023-03-21T00:19:28;98533.56;;;10.40;60.63
64876;BME280;51369;49.862;9.908;2023-03-21T00:21:54;98534.38;;;10.42;61.27
64876;BME280;51369;49.862;9.908;2023-03-21T00:24:21;98521.91;;;10.39;61.15
64876;BME280;51369;49.862;9.908;2023-03-21T00:26:47;98532.69;;;10.39;61.51
64876;BME280;51369;49.862;9.908;2023-03-21T00:29:13;98525.53;;;10.38;61.18
64876;BME280;51369;49.862;9.908;2023-03-21T00:31:38;98531.88;;;10.37;62.18
64876;BME280;51369;49.862;9.908;2023-03-21T00:34:03;98525.66;;;10.35;61.65
64876;BME280;51369;49.862;9.908;2023-03-21T00:36:30;98523.03;;;10.34;61.18
64876;BME280;51369;49.862;9.908;2023-03-21T00:38:57;98519.50;;;10.32;61.60
64876;BME280;51369;49.862;9.908;2023-03-21T00:41:22;98515.94;;;10.31;61.56
64876;BME280;51369;49.862;9.908;2023-03-21T00:43:47;98515.16;;;10.28;61.36
64876;BME280;51369;49.862;9.908;2023-03-21T00:46:13;98516.16;;;10.25;62.19
64876;BME280;51369;49.862;9.908;2023-03-21T00:48:39;98509.06;;;10.23;62.23
64876;BME280;51369;49.862;9.908;2023-03-21T00:51:13;98513.66;;;10.19;62.89
64876;BME280;51369;49.862;9.908;2023-03-21T00:53:40;98501.13;;;10.18;62.69
64876;BME280;51369;49.862;9.908;2023-03-21T00:56:06;98501.25;;;10.15;62.86
64876;BME280;51369;49.862;9.908;2023-03-21T00:58:32;98498.66;;;10.12;62.65
64876;BME280;51369;49.862;9.908;2023-03-21T01:00:57;98501.47;;;10.09;63.17
64876;BME280;51369;49.862;9.908;2023-03-21T01:03:23;98497.09;;;10.06;62.54
64876;BME280;51369;49.862;9.908;2023-03-21T01:05:51;98489.03;;;10.05;63.38
64876;BME280;51369;49.862;9.908;2023-03-21T01:08:37;98494.56;;;10.02;63.50
64876;BME280;51369;49.862;9.908;2023-03-21T01:11:06;98491.09;;;9.98;62.89
64876;BME280;51369;49.862;9.908;2023-03-21T01:13:32;98490.22;;;9.98;63.74
64876;BME280;51369;49.862;9.908;2023-03-21T01:15:58;98486.66;;;9.97;63.64
64876;BME280;51369;49.862;9.908;2023-03-21T01:18:28;98484.06;;;9.94;64.48
64876;BME280;51369;49.862;9.908;2023-03-21T01:20:55;98484.19;;;9.91;64.62
64876;BME280;51369;49.862;9.908;2023-03-21T01:23:21;98488.81;;;9.88;64.19
64876;BME280;51369;49.862;9.908;2023-03-21T01:25:47;98495.25;;;9.84;64.32
64876;BME280;51369;49.862;9.908;2023-03-21T01:28:14;98482.72;;;9.83;64.02
64876;BME280;51369;49.862;9.908;2023-03-21T01:30:47;98491.84;;;9.78;64.34
64876;BME280;51369;49.862;9.908;2023-03-21T01:33:14;98493.72;;;9.76;64.07
64876;BME280;51369;49.862;9.908;2023-03-21T01:35:40;98484.88;;;9.73;63.67
64876;BME280;51369;49.862;9.908;2023-03-21T01:38:06;98485.06;;;9.68;64.72
64876;BME280;51369;49.862;9.908;2023-03-21T01:40:31;98496.06;;;9.62;64.36
64876;BME280;51369;49.862;9.908;2023-03-21T01:43:28;98491.84;;;9.55;64.23
64876;BME280;51369;49.862;9.908;2023-03-21T01:49:17;98491.28;;;9.45;64.95
64876;BME280;51369;49.862;9.908;2023-03-21T01:52:02;98483.53;;;9.36;64.99
64876;BME280;51369;49.862;9.908;2023-03-21T01:54:32;98477.44;;;9.31;64.76
64876;BME280;51369;49.862;9.908;2023-03-21T01:57:03;98475.00;;;9.24;64.85
64876;BME280;51369;49.862;9.908;2023-03-21T01:59:44;98477.00;;;9.19;64.99
64876;BME280;51369;49.862;9.908;2023-03-21T02:02:34;98482.66;;;9.11;64.85
64876;BME280;51369;49.862;9.908;2023-03-21T02:05:27;98481.25;;;8.99;65.17
64876;BME280;51369;49.862;9.908;2023-03-21T02:07:54;98482.47;;;8.91;65.55
64876;BME280;51369;49.862;9.908;2023-03-21T02:10:21;98477.44;;;8.80;65.81
64876;BME280;51369;49.862;9.908;2023-03-21T02:12:50;98477.75;;;8.71;66.07
64876;BME280;51369;49.862;9.908;2023-03-21T02:15:19;98472.72;;;8.62;66.05
64876;BME280;51369;49.862;9.908;2023-03-21T02:17:53;98466.81;;;8.51;66.28
64876;BME280;51369;49.862;9.908;2023-03-21T02:23:59;98453.03;;;8.32;67.20
64876;BME280;51369;49.862;9.908;2023-03-21T02:31:50;98456.56;;;8.06;67.74
64876;BME280;51369;49.862;9.908;2023-03-21T02:37:23;98442.66;;;7.92;67.72
64876;BME280;51369;49.862;9.908;2023-03-21T02:48:25;98438.97;;;7.66;67.85
64876;BME280;51369;49.862;9.908;2023-03-21T02:50:54;98438.13;;;7.64;68.00
64876;BME280;51369;49.862;9.908;2023-03-21T02:53:24;98440.03;;;7.61;68.35
64876;BME280;51369;49.862;9.908;2023-03-21T02:55:53;98444.59;;;7.57;68.27
64876;BME280;51369;49.862;9.908;2023-03-21T02:58:22;98442.00;;;7.54;68.68
64876;BME280;51369;49.862;9.908;2023-03-21T03:00:54;98446.63;;;7.49;68.64
64876;BME280;51369;49.862;9.908;2023-03-21T03:03:36;98444.13;;;7.43;68.97
64876;BME280;51369;49.862;9.908;2023-03-21T03:06:12;98437.16;;;7.36;69.02
64876;BME280;51369;49.862;9.908;2023-03-21T03:09:18;98436.50;;;7.28;69.29
64876;BME280;51369;49.862;9.908;2023-03-21T03:11:50;98442.91;;;7.24;69.30
64876;BME280;51369;49.862;9.908;2023-03-21T03:15:09;98443.06;;;7.17;69.60
64876;BME280;51369;49.862;9.908;2023-03-21T03:20:05;98436.31;;;7.03;70.49
64876;BME280;51369;49.862;9.908;2023-03-21T03:22:46;98441.84;;;6.97;70.96
64876;BME280;51369;49.862;9.908;2023-03-21T03:25:17;98447.38;;;6.92;70.84
64876;BME280;51369;49.862;9.908;2023-03-21T03:27:46;98436.78;;;6.88;71.33
64876;BME280;51369;49.862;9.908;2023-03-21T03:30:14;98439.56;;;6.83;71.86
64876;BME280;51369;49.862;9.908;2023-03-21T03:32:53;98438.84;;;6.76;71.73
64876;BME280;51369;49.862;9.908;2023-03-21T03:35:20;98434.41;;;6.75;71.66
64876;BME280;51369;49.862;9.908;2023-03-21T03:37:50;98444.38;;;6.70;72.00
64876;BME280;51369;49.862;9.908;2023-03-21T03:40:24;98434.63;;;6.68;71.98
64876;BME280;51369;49.862;9.908;2023-03-21T03:43:07;98437.34;;;6.66;73.19
64876;BME280;51369;49.862;9.908;2023-03-21T03:45:43;98440.06;;;6.65;73.19
64876;BME280;51369;49.862;9.908;2023-03-21T03:48:29;98432.94;;;6.64;73.90
64876;BME280;51369;49.862;9.908;2023-03-21T03:51:05;98442.75;;;6.65;73.94
64876;BME280;51369;49.862;9.908;2023-03-21T03:54:04;98435.66;;;6.62;73.81
64876;BME280;51369;49.862;9.908;2023-03-21T03:56:31;98435.69;;;6.61;74.33
64876;BME280;51369;49.862;9.908;2023-03-21T03:58:57;98433.06;;;6.59;74.21
64876;BME280;51369;49.862;9.908;2023-03-21T04:01:36;98435.69;;;6.61;73.79
64876;BME280;51369;49.862;9.908;2023-03-21T04:04:02;98436.63;;;6.60;73.74
64876;BME280;51369;49.862;9.908;2023-03-21T04:06:27;98432.09;;;6.62;73.38
64876;BME280;51369;49.862;9.908;2023-03-21T04:08:54;98439.22;;;6.63;73.59
64876;BME280;51369;49.862;9.908;2023-03-21T04:11:21;98432.94;;;6.64;73.95
64876;BME280;51369;49.862;9.908;2023-03-21T04:13:51;98429.28;;;6.66;74.32
64876;BME280;51369;49.862;9.908;2023-03-21T04:16:21;98429.16;;;6.71;74.48
64876;BME280;51369;49.862;9.908;2023-03-21T04:18:47;98425.47;;;6.75;74.11
64876;BME280;51369;49.862;9.908;2023-03-21T04:21:16;98421.84;;;6.77;74.69
64876;BME280;51369;49.862;9.908;2023-03-21T04:23:42;98427.97;;;6.82;74.70
64876;BME280;51369;49.862;9.908;2023-03-21T04:26:08;98420.72;;;6.86;74.87
64876;BME280;51369;49.862;9.908;2023-03-21T04:28:37;98416.97;;;6.92;74.86
64876;BME280;51369;49.862;9.908;2023-03-21T04:31:14;98420.34;;;6.98;74.83
64876;BME280;51369;49.862;9.908;2023-03-21T04:33:45;98415.69;;;7.05;74.95
64876;BME280;51369;49.862;9.908;2023-03-21T04:36:12;98425.38;;;7.10;74.58
64876;BME280;51369;49.862;9.908;2023-03-21T04:38:51;98420.72;;;7.17;74.44
64876;BME280;51369;49.862;9.908;2023-03-21T04:41:17;98424.13;;;7.22;74.19
64876;BME280;51369;49.862;9.908;2023-03-21T04:43:44;98422.16;;;7.29;74.17
64876;BME280;51369;49.862;9.908;2023-03-21T04:46:10;98426.53;;;7.33;73.87
64876;BME280;51369;49.862;9.908;2023-03-21T04:48:36;98426.34;;;7.39;73.89
64876;BME280;51369;49.862;9.908;2023-03-21T04:51:02;98419.03;;;7.44;73.54
64876;BME280;51369;49.862;9.908;2023-03-21T04:53:27;98408.09;;;7.50;73.02
64876;BME280;51369;49.862;9.908;2023-03-21T04:55:53;98412.41;;;7.56;72.82
64876;BME280;51369;49.862;9.908;2023-03-21T04:58:18;98420.34;;;7.60;72.66
64876;BME280;51369;49.862;9.908;2023-03-21T05:00:45;98418.38;;;7.65;72.89
64876;BME280;51369;49.862;9.908;2023-03-21T05:03:10;98412.03;;;7.68;73.08
64876;BME280;51369;49.862;9.908;2023-03-21T05:05:44;98419.19;;;7.69;72.87
64876;BME280;51369;49.862;9.908;2023-03-21T05:08:09;98412.91;;;7.68;73.19
64876;BME280;51369;49.862;9.908;2023-03-21T05:10:35;98417.41;;;7.68;73.24
64876;BME280;51369;49.862;9.908;2023-03-21T05:13:00;98420.09;;;7.68;73.32
64876;BME280;51369;49.862;9.908;2023-03-21T05:15:26;98420.16;;;7.66;72.93
64876;BME280;51369;49.862;9.908;2023-03-21T05:17:52;98419.31;;;7.64;72.60
64876;BME280;51369;49.862;9.908;2023-03-21T05:20:17;98419.31;;;7.64;72.87
64876;BME280;51369;49.862;9.908;2023-03-21T05:22:43;98420.28;;;7.62;73.00
64876;BME280;51369;49.862;9.908;2023-03-21T05:25:13;98423.91;;;7.61;72.82
64876;BME280;51369;49.862;9.908;2023-03-21T05:27:53;98414.13;;;7.58;73.29
64876;BME280;51369;49.862;9.908;2023-03-21T05:30:23;98410.56;;;7.58;73.48
64876;BME280;51369;49.862;9.908;2023-03-21T05:32:50;98414.97;;;7.60;73.23
64876;BME280;51369;49.862;9.908;2023-03-21T05:35:16;98405.03;;;7.62;73.45
64876;BME280;51369;49.862;9.908;2023-03-21T05:37:42;98406.72;;;7.66;73.77
64876;BME280;51369;49.862;9.908;2023-03-21T05:40:08;98413.81;;;7.69;73.70
64876;BME280;51369;49.862;9.908;2023-03-21T05:42:36;98404.75;;;7.71;73.56
64876;BME280;51369;49.862;9.908;2023-03-21T05:45:10;98410.97;;;7.73;73.35
64876;BME280;51369;49.862;9.908;2023-03-21T05:47:36;98412.72;;;7.74;73.12
64876;BME280;51369;49.862;9.908;2023-03-21T05:50:03;98408.25;;;7.75;72.84
64876;BME280;51369;49.862;9.908;2023-03-21T05:52:30;98414.44;;;7.77;73.23
64876;BME280;51369;49.862;9.908;2023-03-21T05:54:56;98418.91;;;7.78;73.19
64876;BME280;51369;49.862;9.908;2023-03-21T05:57:23;98420.69;;;7.77;72.84
64876;BME280;51369;49.862;9.908;2023-03-21T05:59:58;98423.38;;;7.77;73.22
64876;BME280;51369;49.862;9.908;2023-03-21T06:02:25;98412.63;;;7.77;73.19
64876;BME280;51369;49.862;9.908;2023-03-21T06:04:52;98421.63;;;7.76;73.03
64876;BME280;51369;49.862;9.908;2023-03-21T06:07:20;98423.44;;;7.76;73.17
64876;BME280;51369;49.862;9.908;2023-03-21T06:09:45;98423.47;;;7.74;73.29
64876;BME280;51369;49.862;9.908;2023-03-21T06:12:11;98420.78;;;7.74;73.39
64876;BME280;51369;49.862;9.908;2023-03-21T06:14:51;98426.22;;;7.73;73.20
64876;BME280;51369;49.862;9.908;2023-03-21T06:17:27;98422.59;;;7.74;73.39
64876;BME280;51369;49.862;9.908;2023-03-21T06:19:57;98428.91;;;7.73;73.10
64876;BME280;51369;49.862;9.908;2023-03-21T06:22:30;98417.28;;;7.72;73.41
64876;BME280;51369;49.862;9.908;2023-03-21T06:24:56;98431.59;;;7.73;73.35
64876;BME280;51369;49.862;9.908;2023-03-21T06:27:21;98432.44;;;7.75;73.22
64876;BME280;51369;49.862;9.908;2023-03-21T06:29:51;98436.00;;;7.75;73.52
64876;BME280;51369;49.862;9.908;2023-03-21T06:32:17;98433.25;;;7.77;73.39
64876;BME280;51369;49.862;9.908;2023-03-21T06:34:43;98432.34;;;7.78;72.98
64876;BME280;51369;49.862;9.908;2023-03-21T06:37:13;98435.81;;;7.81;73.43
64876;BME280;51369;49.862;9.908;2023-03-21T06:39:40;98436.59;;;7.85;73.74
64876;BME280;51369;49.862;9.908;2023-03-21T06:42:05;98427.50;;;7.89;73.82
64876;BME280;51369;49.862;9.908;2023-03-21T06:44:31;98433.56;;;7.96;73.35
64876;BME280;51369;49.862;9.908;2023-03-21T06:47:01;98439.63;;;8.02;73.48
64876;BME280;51369;49.862;9.908;2023-03-21T06:49:26;98436.81;;;8.07;73.53
64876;BME280;51369;49.862;9.908;2023-03-21T06:51:53;98433.03;;;8.12;73.86
64876;BME280;51369;49.862;9.908;2023-03-21T06:54:19;98429.31;;;8.16;73.42
64876;BME280;51369;49.862;9.908;2023-03-21T06:56:55;98441.34;;;8.34;73.84
64876;BME280;51369;49.862;9.908;2023-03-21T06:59:33;98440.63;;;8.56;73.86
64876;BME280;51369;49.862;9.908;2023-03-21T07:02:04;98438.00;;;8.79;73.48
64876;BME280;51369;49.862;9.908;2023-03-21T07:04:34;98441.63;;;9.03;73.27
64876;BME280;51369;49.862;9.908;2023-03-21T07:07:00;98437.06;;;9.30;72.87
64876;BME280;51369;49.862;9.908;2023-03-21T07:09:26;98437.69;;;9.61;72.87
64876;BME280;51369;49.862;9.908;2023-03-21T07:11:55;98430.94;;;9.96;71.74
64876;BME280;51369;49.862;9.908;2023-03-21T07:14:24;98432.44;;;10.27;70.18
64876;BME280;51369;49.862;9.908;2023-03-21T07:16:50;98428.72;;;10.51;69.43
64876;BME280;51369;49.862;9.908;2023-03-21T07:19:15;98430.66;;;10.69;68.83
64876;BME280;51369;49.862;9.908;2023-03-21T07:21:41;98422.91;;;10.82;67.08
64876;BME280;51369;49.862;9.908;2023-03-21T07:24:06;98427.09;;;10.89;66.48
64876;BME280;51369;49.862;9.908;2023-03-21T07:26:33;98429.59;;;10.94;65.82
64876;BME280;51369;49.862;9.908;2023-03-21T07:28:59;98426.69;;;10.98;65.53
64876;BME280;51369;49.862;9.908;2023-03-21T07:31:25;98423.72;;;11.04;65.34
64876;BME280;51369;49.862;9.908;2023-03-21T07:33:52;98420.75;;;11.11;65.78
64876;BME280;51369;49.862;9.908;2023-03-21T07:36:17;98424.88;;;11.19;65.46
64876;BME280;51369;49.862;9.908;2023-03-21T07:38:44;98427.91;;;11.32;65.51
64876;BME280;51369;49.862;9.908;2023-03-21T07:41:11;98422.69;;;11.48;65.22
64876;BME280;51369;49.862;9.908;2023-03-21T07:43:37;98420.03;;;11.66;66.12
64876;BME280;51369;49.862;9.908;2023-03-21T07:46:04;98420.16;;;11.84;64.86
64876;BME280;51369;49.862;9.908;2023-03-21T07:48:30;98426.59;;;12.00;64.89
64876;BME280;51369;49.862;9.908;2023-03-21T07:50:56;98419.72;;;12.12;64.60
64876;BME280;51369;49.862;9.908;2023-03-21T07:53:22;98420.09;;;12.21;63.90
64876;BME280;51369;49.862;9.908;2023-03-21T07:55:51;98414.31;;;12.29;63.79
64876;BME280;51369;49.862;9.908;2023-03-21T07:58:17;98415.69;;;12.37;63.13
64876;BME280;51369;49.862;9.908;2023-03-21T08:00:43;98425.34;;;12.43;63.05
64876;BME280;51369;49.862;9.908;2023-03-21T08:03:08;98428.72;;;12.48;63.46
64876;BME280;51369;49.862;9.908;2023-03-21T08:05:35;98420.34;;;12.53;62.69
64876;BME280;51369;49.862;9.908;2023-03-21T08:08:03;98432.72;;;12.58;62.61
64876;BME280;51369;49.862;9.908;2023-03-21T08:10:28;98421.81;;;12.60;62.53
64876;BME280;51369;49.862;9.908;2023-03-21T08:12:54;98433.38;;;12.63;61.71
64876;BME280;51369;49.862;9.908;2023-03-21T08:15:20;98431.38;;;12.67;62.36
64876;BME280;51369;49.862;9.908;2023-03-21T08:17:46;98425.66;;;12.73;62.35
64876;BME280;51369;49.862;9.908;2023-03-21T08:20:15;98420.81;;;12.80;61.21
64876;BME280;51369;49.862;9.908;2023-03-21T08:22:42;98416.81;;;12.87;62.04
64876;BME280;51369;49.862;9.908;2023-03-21T08:25:09;98417.38;;;12.93;62.30
64876;BME280;51369;49.862;9.908;2023-03-21T08:27:41;98417.16;;;12.98;61.46
64876;BME280;51369;49.862;9.908;2023-03-21T08:30:08;98415.16;;;13.01;61.09
64876;BME280;51369;49.862;9.908;2023-03-21T08:32:34;98411.50;;;13.02;61.45
64876;BME280;51369;49.862;9.908;2023-03-21T08:35:04;98415.00;;;13.04;61.39
64876;BME280;51369;49.862;9.908;2023-03-21T08:37:32;98414.13;;;13.04;61.13
64876;BME280;51369;49.862;9.908;2023-03-21T08:39:57;98412.22;;;13.06;61.37
64876;BME280;51369;49.862;9.908;2023-03-21T08:42:23;98413.00;;;13.08;60.64
64876;BME280;51369;49.862;9.908;2023-03-21T08:44:48;98411.97;;;13.11;61.09
64876;BME280;51369;49.862;9.908;2023-03-21T08:47:14;98412.69;;;13.14;61.25
64876;BME280;51369;49.862;9.908;2023-03-21T08:49:40;98410.63;;;13.19;61.29
64876;BME280;51369;49.862;9.908;2023-03-21T08:52:06;98403.84;;;13.28;60.41
64876;BME280;51369;49.862;9.908;2023-03-21T08:54:31;98396.97;;;13.38;59.86
64876;BME280;51369;49.862;9.908;2023-03-21T08:56:57;98399.13;;;13.49;60.33
64876;BME280;51369;49.862;9.908;2023-03-21T08:59:22;98393.91;;;13.61;59.90
64876;BME280;51369;49.862;9.908;2023-03-21T09:01:49;98393.22;;;13.74;59.94
64876;BME280;51369;49.862;9.908;2023-03-21T09:04:14;98400.00;;;13.82;59.08
64876;BME280;51369;49.862;9.908;2023-03-21T09:06:43;98401.44;;;13.88;59.20
64876;BME280;51369;49.862;9.908;2023-03-21T09:09:15;98390.50;;;13.89;59.34
64876;BME280;51369;49.862;9.908;2023-03-21T09:11:40;98385.09;;;13.89;58.37
64876;BME280;51369;49.862;9.908;2023-03-21T09:14:07;98388.75;;;13.88;58.91
64876;BME280;51369;49.862;9.908;2023-03-21T09:16:32;98379.66;;;13.89;58.00
64876;BME280;51369;49.862;9.908;2023-03-21T09:18:58;98379.47;;;13.92;58.98
64876;BME280;51369;49.862;9.908;2023-03-21T09:21:25;98378.25;;;13.98;57.91
64876;BME280;51369;49.862;9.908;2023-03-21T09:23:52;98378.88;;;14.03;58.16
64876;BME280;51369;49.862;9.908;2023-03-21T09:26:21;98386.50;;;14.12;58.51
64876;BME280;51369;49.862;9.908;2023-03-21T09:28:47;98373.53;;;14.17;57.31
64876;BME280;51369;49.862;9.908;2023-03-21T09:31:14;98376.69;;;14.25;56.73
64876;BME280;51369;49.862;9.908;2023-03-21T09:33:41;98375.28;;;14.34;56.76
64876;BME280;51369;49.862;9.908;2023-03-21T09:36:08;98374.88;;;14.42;56.50
64876;BME280;51369;49.862;9.908;2023-03-21T09:38:41;98363.56;;;14.49;57.47
64876;BME280;51369;49.862;9.908;2023-03-21T09:49:40;98367.13;;;14.95;54.86
64876;BME280;51369;49.862;9.908;2023-03-21T09:52:15;98378.25;;;15.07;55.54
64876;BME280;51369;49.862;9.908;2023-03-21T09:54:43;98374.00;;;15.17;55.23
64876;BME280;51369;49.862;9.908;2023-03-21T09:57:26;98367.00;;;15.27;54.96
64876;BME280;51369;49.862;9.908;2023-03-21T09:59:53;98371.59;;;15.41;55.56
64876;BME280;51369;49.862;9.908;2023-03-21T10:02:37;98369.28;;;15.49;54.20
64876;BME280;51369;49.862;9.908;2023-03-21T10:07:45;98365.78;;;15.89;54.74
64876;BME280;51369;49.862;9.908;2023-03-21T10:10:22;98356.31;;;16.09;54.70
64876;BME280;51369;49.862;9.908;2023-03-21T10:12:51;98357.53;;;16.32;54.55
64876;BME280;51369;49.862;9.908;2023-03-21T10:15:19;98356.00;;;16.55;53.53
64876;BME280;51369;49.862;9.908;2023-03-21T10:17:53;98354.47;;;16.78;53.34
64876;BME280;51369;49.862;9.908;2023-03-21T10:20:23;98351.03;;;17.01;53.84
64876;BME280;51369;49.862;9.908;2023-03-21T10:22:52;98352.38;;;17.21;53.93
64876;BME280;51369;49.862;9.908;2023-03-21T10:25:27;98350.19;;;17.39;53.21
64876;BME280;51369;49.862;9.908;2023-03-21T10:27:54;98347.13;;;17.56;52.65
64876;BME280;51369;49.862;9.908;2023-03-21T10:30:29;98353.72;;;17.66;52.21
64876;BME280;51369;49.862;9.908;2023-03-21T10:32:58;98338.63;;;17.73;51.41
64876;BME280;51369;49.862;9.908;2023-03-21T10:35:29;98324.66;;;17.78;51.40
64876;BME280;51369;49.862;9.908;2023-03-21T10:37:59;98331.63;;;17.82;51.69
64876;BME280;51369;49.862;9.908;2023-03-21T10:40:25;98330.97;;;17.91;52.21
64876;BME280;51369;49.862;9.908;2023-03-21T10:43:17;98326.69;;;18.00;51.79
64876;BME280;51369;49.862;9.908;2023-03-21T10:45:44;98318.78;;;18.08;51.43
64876;BME280;51369;49.862;9.908;2023-03-21T10:48:11;98318.09;;;18.17;51.69
64876;BME280;51369;49.862;9.908;2023-03-21T10:50:36;98319.16;;;18.27;52.13
64876;BME280;51369;49.862;9.908;2023-03-21T10:53:02;98322.72;;;18.40;52.05
64876;BME280;51369;49.862;9.908;2023-03-21T10:55:30;98320.59;;;18.57;54.04
64876;BME280;51369;49.862;9.908;2023-03-21T10:58:06;98315.09;;;18.69;52.71
64876;BME280;51369;49.862;9.908;2023-03-21T11:00:38;98316.00;;;18.81;52.72
64876;BME280;51369;49.862;9.908;2023-03-21T11:03:07;98320.13;;;18.87;53.71
64876;BME280;51369;49.862;9.908;2023-03-21T11:05:41;98328.09;;;18.90;53.25
64876;BME280;51369;49.862;9.908;2023-03-21T11:08:15;98315.78;;;18.84;51.04
64876;BME280;51369;49.862;9.908;2023-03-21T11:11:01;98327.34;;;18.88;55.16
64876;BME280;51369;49.862;9.908;2023-03-21T11:13:40;98322.97;;;18.85;52.78
64876;BME280;51369;49.862;9.908;2023-03-21T11:18:55;98322.47;;;18.80;51.77
64876;BME280;51369;49.862;9.908;2023-03-21T11:21:21;98314.38;;;18.78;52.87
64876;BME280;51369;49.862;9.908;2023-03-21T11:23:53;98312.13;;;18.72;52.69
64876;BME280;51369;49.862;9.908;2023-03-21T11:26:21;98311.72;;;18.66;52.43
64876;BME280;51369;49.862;9.908;2023-03-21T11:28:51;98305.81;;;18.59;51.90
64876;BME280;51369;49.862;9.908;2023-03-21T11:31:16;98305.28;;;18.54;51.60
64876;BME280;51369;49.862;9.908;2023-03-21T11:33:54;98302.25;;;18.46;51.42
64876;BME280;51369;49.862;9.908;2023-03-21T11:36:30;98301.38;;;18.45;51.31
64876;BME280;51369;49.862;9.908;2023-03-21T11:39:02;98304.00;;;18.47;51.87
64876;BME280;51369;49.862;9.908;2023-03-21T11:41:39;98295.34;;;18.53;51.35
64876;BME280;51369;49.862;9.908;2023-03-21T11:44:05;98302.09;;;18.60;51.83
64876;BME280;51369;49.862;9.908;2023-03-21T11:46:31;98299.91;;;18.65;50.39
64876;BME280;51369;49.862;9.908;2023-03-21T11:48:57;98284.88;;;18.71;50.22
64876;BME280;51369;49.862;9.908;2023-03-21T11:56:57;98288.56;;;18.94;49.25
64876;BME280;51369;49.862;9.908;2023-03-21T11:59:31;98283.63;;;18.99;49.89
64876;BME280;51369;49.862;9.908;2023-03-21T12:10:25;98275.28;;;19.11;48.63
64876;BME280;51369;49.862;9.908;2023-03-21T12:20:28;98255.03;;;19.25;49.63
64876;BME280;51369;49.862;9.908;2023-03-21T12:23:03;98245.81;;;19.26;49.77
64876;BME280;51369;49.862;9.908;2023-03-21T12:25:55;98257.75;;;19.25;48.23
64876;BME280;51369;49.862;9.908;2023-03-21T12:28:49;98243.84;;;19.28;48.93
64876;BME280;51369;49.862;9.908;2023-03-21T12:34:34;98245.69;;;19.39;49.83
64876;BME280;51369;49.862;9.908;2023-03-21T12:43:13;98228.66;;;19.35;47.14
64876;BME280;51369;49.862;9.908;2023-03-21T12:45:45;98229.53;;;19.36;47.25
64876;BME280;51369;49.862;9.908;2023-03-21T12:48:42;98226.91;;;19.34;47.80
64876;BME280;51369;49.862;9.908;2023-03-21T12:51:12;98223.81;;;19.39;49.17
64876;BME280;51369;49.862;9.908;2023-03-21T12:53:51;98221.19;;;19.37;50.28
64876;BME280;51369;49.862;9.908;2023-03-21T12:56:24;98216.59;;;19.38;48.55
64876;BME280;51369;49.862;9.908;2023-03-21T12:59:00;98228.66;;;19.35;50.03
64876;BME280;51369;49.862;9.908;2023-03-21T13:01:27;98223.44;;;19.32;49.87
64876;BME280;51369;49.862;9.908;2023-03-21T13:06:59;98212.34;;;19.23;49.24
64876;BME280;51369;49.862;9.908;2023-03-21T13:09:40;98210.22;;;19.15;48.52
64876;BME280;51369;49.862;9.908;2023-03-21T13:12:24;98213.94;;;19.14;48.21
64876;BME280;51369;49.862;9.908;2023-03-21T13:15:13;98208.59;;;19.12;48.81
64876;BME280;51369;49.862;9.908;2023-03-21T13:17:49;98210.72;;;19.09;48.34
64876;BME280;51369;49.862;9.908;2023-03-21T13:20:36;98200.28;;;19.03;49.10
64876;BME280;51369;49.862;9.908;2023-03-21T13:23:07;98195.69;;;19.03;48.93
64876;BME280;51369;49.862;9.908;2023-03-21T13:25:41;98193.19;;;19.00;49.19
64876;BME280;51369;49.862;9.908;2023-03-21T13:28:17;98199.91;;;18.96;49.57
64876;BME280;51369;49.862;9.908;2023-03-21T13:30:43;98192.44;;;18.98;51.32
64876;BME280;51369;49.862;9.908;2023-03-21T13:33:13;98189.56;;;18.89;47.59
64876;BME280;51369;49.862;9.908;2023-03-21T13:35:41;98188.31;;;18.81;49.01
64876;BME280;51369;49.862;9.908;2023-03-21T13:38:16;98192.66;;;18.73;50.42
64876;BME280;51369;49.862;9.908;2023-03-21T13:40:56;98191.25;;;18.67;49.93
64876;BME280;51369;49.862;9.908;2023-03-21T13:46:06;98184.97;;;18.54;48.99
64876;BME280;51369;49.862;9.908;2023-03-21T13:51:18;98180.31;;;18.32;48.62
64876;BME280;51369;49.862;9.908;2023-03-21T13:53:58;98184.50;;;18.25;49.79
64876;BME280;51369;49.862;9.908;2023-03-21T13:56:24;98181.88;;;18.24;50.97
64876;BME280;51369;49.862;9.908;2023-03-21T13:58:52;98177.88;;;18.16;50.74
64876;BME280;51369;49.862;9.908;2023-03-21T14:01:30;98184.81;;;18.09;50.07
64876;BME280;51369;49.862;9.908;2023-03-21T14:04:10;98184.75;;;17.98;49.50
64876;BME280;51369;49.862;9.908;2023-03-21T14:06:43;98188.69;;;17.94;50.84
64876;BME280;51369;49.862;9.908;2023-03-21T14:09:20;98181.09;;;17.86;51.17
64876;BME280;51369;49.862;9.908;2023-03-21T14:11:49;98187.22;;;17.77;49.45
64876;BME280;51369;49.862;9.908;2023-03-21T14:14:18;98185.31;;;17.67;50.75
64876;BME280;51369;49.862;9.908;2023-03-21T14:16:45;98183.56;;;17.53;51.21
64876;BME280;51369;49.862;9.908;2023-03-21T14:19:11;98180.63;;;17.43;52.29
64876;BME280;51369;49.862;9.908;2023-03-21T14:21:36;98180.69;;;17.31;53.15
64876;BME280;51369;49.862;9.908;2023-03-21T14:24:10;98180.94;;;17.15;53.49
64876;BME280;51369;49.862;9.908;2023-03-21T14:26:41;98178.34;;;17.01;53.54
64876;BME280;51369;49.862;9.908;2023-03-21T14:29:08;98176.59;;;16.87;55.85
64876;BME280;51369;49.862;9.908;2023-03-21T14:31:37;98172.88;;;16.75;56.59
64876;BME280;51369;49.862;9.908;2023-03-21T14:34:05;98182.13;;;16.60;56.92
64876;BME280;51369;49.862;9.908;2023-03-21T14:36:37;98176.97;;;16.43;58.16
64876;BME280;51369;49.862;9.908;2023-03-21T14:39:12;98176.16;;;16.28;57.73